Time;durP1;ratioP1;P1;durP2;ratioP2;P2;SDS_P1;SDS_P2;PMS_P1;PMS_P2;Temp;Humidity;BMP_temperature;BMP_pressure;BME280_temperature;BME280_humidity;BME280_pressure;Samples;Min_cycle;Max_cycle;Signal;HPM_P1;HPM_P2
2022/01/09 00:01:01;;;;;;;56.50;35.15;;;;;;;-142.57;100.00;61215.63;6253812;22;20015;-87
2022/01/09 00:03:26;;;;;;;59.20;36.00;;;;;;;-142.57;100.00;61215.63;6280103;22;20007;-86
2022/01/09 00:05:52;;;;;;;57.78;34.88;;;;;;;-142.57;100.00;61215.63;6278432;22;20022;-87
2022/01/09 00:08:20;;;;;;;55.20;33.88;;;;;;;-142.57;100.00;61215.63;6278742;22;20340;-86
2022/01/09 00:10:47;;;;;;;55.70;34.65;;;;;;;-142.57;100.00;61215.63;6250414;22;20377;-87
2022/01/09 00:13:19;;;;;;;56.13;33.90;;;;;;;-142.57;100.00;61215.63;6279974;22;20007;-86
2022/01/09 00:15:44;;;;;;;58.50;35.03;;;;;;;-142.57;100.00;61215.63;6279443;22;20011;-84
2022/01/09 00:18:10;;;;;;;60.08;35.92;;;;;;;-142.57;100.00;61215.63;6279452;22;20003;-86
2022/01/09 00:20:36;;;;;;;61.88;37.90;;;;;;;-142.57;100.00;61215.63;6280336;22;20004;-85
2022/01/09 00:23:04;;;;;;;59.55;36.25;;;;;;;-142.57;100.00;61215.63;6279309;22;20012;-88
2022/01/09 00:25:30;;;;;;;56.97;35.88;;;;;;;-142.57;100.00;61215.63;6254019;22;20068;-86
2022/01/09 00:27:56;;;;;;;78.78;42.92;;;;;;;-142.57;100.00;61215.63;6278681;22;20035;-88
2022/01/09 00:30:23;;;;;;;65.68;39.83;;;;;;;-142.57;100.00;61215.63;6287315;22;20003;-86
2022/01/09 00:32:54;;;;;;;72.45;41.28;;;;;;;-142.57;100.00;61215.63;6283062;22;20034;-86
2022/01/09 00:35:19;;;;;;;73.63;41.03;;;;;;;-142.57;100.00;61215.63;6253606;22;20008;-87
2022/01/09 00:37:45;;;;;;;64.20;39.35;;;;;;;-142.57;100.00;61215.63;6279049;22;19999;-85
2022/01/09 00:40:12;;;;;;;64.45;38.63;;;;;;;-142.57;100.00;61215.63;6278620;22;20012;-87
2022/01/09 00:42:39;;;;;;;60.70;36.85;;;;;;;-142.57;100.00;61215.63;6279527;22;20010;-88
2022/01/09 00:45:11;;;;;;;57.10;35.50;;;;;;;-142.57;100.00;61215.63;6278849;22;20407;-85
2022/01/09 00:47:37;;;;;;;58.42;35.95;;;;;;;-142.57;100.00;61215.63;6279041;22;20057;-86
2022/01/09 00:50:04;;;;;;;59.58;37.25;;;;;;;-142.57;100.00;61215.63;6252806;22;20008;-87
2022/01/09 00:52:29;;;;;;;62.65;37.70;;;;;;;-142.57;100.00;61215.63;6279228;22;20010;-86
2022/01/09 00:54:55;;;;;;;55.75;33.95;;;;;;;-142.57;100.00;61215.63;6279416;22;20435;-86
2022/01/09 00:57:21;;;;;;;48.00;31.60;;;;;;;-142.57;100.00;61215.63;6278248;22;20008;-84
2022/01/09 00:59:46;;;;;;;56.60;33.60;;;;;;;-142.57;100.00;61215.63;6278494;22;20003;-84
2022/01/09 01:02:12;;;;;;;53.63;32.95;;;;;;;-142.57;100.00;61215.63;6278304;22;20004;-85
2022/01/09 01:04:39;;;;;;;50.05;32.53;;;;;;;-142.57;100.00;61215.63;6278736;22;20011;-85
2022/01/09 01:07:09;;;;;;;39.40;25.45;;;;;;;-142.57;100.00;61215.63;6280451;22;20035;-84
2022/01/09 01:09:35;;;;;;;53.75;33.38;;;;;;;-142.57;100.00;61215.63;6277797;22;19999;-85
2022/01/09 01:12:02;;;;;;;50.03;31.63;;;;;;;-142.57;100.00;61215.63;6277941;22;20008;-84
2022/01/09 01:14:29;;;;;;;49.20;31.13;;;;;;;-142.57;100.00;61215.63;6278915;22;20007;-86
2022/01/09 01:16:54;;;;;;;55.30;32.38;;;;;;;-142.57;100.00;61215.63;6278299;22;20012;-86
2022/01/09 01:19:21;;;;;;;54.85;32.47;;;;;;;-142.57;100.00;61215.63;6279332;22;20018;-86
2022/01/09 01:21:47;;;;;;;52.38;31.10;;;;;;;-142.57;100.00;61215.63;6279800;22;20000;-84
2022/01/09 01:24:13;;;;;;;57.40;32.58;;;;;;;-142.57;100.00;61215.63;6280197;22;20485;-84
2022/01/09 01:26:38;;;;;;;53.13;32.13;;;;;;;-142.57;100.00;61215.63;6279317;22;20011;-84
2022/01/09 01:29:04;;;;;;;58.45;34.08;;;;;;;-142.57;100.00;61215.63;6279777;22;20481;-86
2022/01/09 01:31:29;;;;;;;57.35;34.00;;;;;;;-142.57;100.00;61215.63;6279637;22;20004;-84
2022/01/09 01:33:55;;;;;;;58.65;34.97;;;;;;;-142.57;100.00;61215.63;6252062;22;20000;-86
2022/01/09 01:36:21;;;;;;;55.83;34.90;;;;;;;-142.57;100.00;61215.63;6254052;22;20065;-84
2022/01/09 01:38:46;;;;;;;57.85;35.90;;;;;;;-142.57;100.00;61215.63;6227758;22;20443;-85
2022/01/09 01:41:12;;;;;;;59.28;37.55;;;;;;;-142.57;100.00;61215.63;6253714;22;20019;-85
2022/01/09 01:43:38;;;;;;;70.53;40.13;;;;;;;-142.57;100.00;61215.63;6278276;22;20010;-87
2022/01/09 01:46:04;;;;;;;82.45;40.45;;;;;;;-142.57;100.00;61215.63;6278643;22;20022;-86
2022/01/09 01:48:30;;;;;;;74.68;40.97;;;;;;;-142.57;100.00;61215.63;6251334;22;20026;-84
2022/01/09 01:50:56;;;;;;;208.15;42.55;;;;;;;-142.57;100.00;61215.63;6278275;22;20007;-86
2022/01/09 01:53:23;;;;;;;69.50;39.90;;;;;;;-142.57;100.00;61215.63;6283693;22;20028;-84
2022/01/09 01:55:53;;;;;;;91.90;41.95;;;;;;;-142.57;100.00;61215.63;6288241;22;20054;-85
2022/01/09 01:58:20;;;;;;;86.20;42.83;;;;;;;-142.57;100.00;61215.63;6282559;22;20008;-86
2022/01/09 02:00:49;;;;;;;75.95;42.30;;;;;;;-142.57;100.00;61215.63;6284249;22;20018;-83
2022/01/09 02:03:15;;;;;;;153.50;43.55;;;;;;;-142.57;100.00;61215.63;6281752;22;20014;-84
2022/01/09 02:05:42;;;;;;;129.60;43.67;;;;;;;-142.57;100.00;61215.63;6279997;22;20004;-84
2022/01/09 02:08:09;;;;;;;130.23;41.92;;;;;;;-142.57;100.00;61215.63;6281803;22;20008;-87
2022/01/09 02:10:39;;;;;;;128.63;41.88;;;;;;;-142.57;100.00;61215.63;6281210;22;20022;-86
2022/01/09 02:13:04;;;;;;;154.52;42.30;;;;;;;-142.57;100.00;61215.63;6280525;22;20012;-86
2022/01/09 02:15:37;;;;;;;106.82;43.38;;;;;;;-142.57;100.00;61215.63;6278770;22;20407;-86
2022/01/09 02:18:08;;;;;;;113.90;43.92;;;;;;;-142.57;100.00;61215.63;6279988;22;20007;-86
2022/01/09 02:20:36;;;;;;;133.27;42.03;;;;;;;-142.57;100.00;61215.63;6279761;22;20050;-86
2022/01/09 02:23:03;;;;;;;97.57;42.42;;;;;;;-142.57;100.00;61215.63;6281731;22;20011;-84
2022/01/09 02:25:28;;;;;;;95.32;41.50;;;;;;;-142.57;100.00;61215.63;6295360;22;20040;-85
2022/01/09 02:27:54;;;;;;;206.60;41.90;;;;;;;-142.57;100.00;61215.63;6302734;22;20008;-86
2022/01/09 02:30:22;;;;;;;107.32;40.47;;;;;;;-142.57;100.00;61215.63;6306212;22;20018;-86
2022/01/09 02:32:48;;;;;;;207.98;41.60;;;;;;;-142.57;100.00;61215.63;6258012;22;20518;-85
2022/01/09 02:35:13;;;;;;;107.85;42.35;;;;;;;-142.57;100.00;61215.63;6279843;22;20019;-84
2022/01/09 02:37:39;;;;;;;267.83;46.65;;;;;;;-142.57;100.00;61215.63;6278553;22;20000;-85
2022/01/09 02:40:05;;;;;;;141.30;43.97;;;;;;;-142.57;100.00;61215.63;6277498;22;20008;-86
2022/01/09 02:42:32;;;;;;;157.63;43.42;;;;;;;-142.57;100.00;61215.63;6277382;22;20082;-85
2022/01/09 02:44:58;;;;;;;113.05;44.40;;;;;;;-142.57;100.00;61215.63;6277577;22;20057;-85
2022/01/09 02:47:30;;;;;;;119.03;43.95;;;;;;;-142.57;100.00;61215.63;6277441;22;20065;-86
2022/01/09 02:50:02;;;;;;;100.20;42.13;;;;;;;-142.57;100.00;61215.63;6250845;22;20010;-85
2022/01/09 02:55:17;;;;;;;140.80;37.95;;;;;;;-142.57;100.00;61215.63;6278269;22;20046;-84
2022/01/09 02:57:47;;;;;;;111.00;38.70;;;;;;;-142.57;100.00;61215.63;6278923;22;20051;-89
2022/01/09 03:00:26;;;;;;;148.82;37.35;;;;;;;-142.57;100.00;61215.63;6280000;22;20446;-82
2022/01/09 03:02:52;;;;;;;149.73;38.15;;;;;;;-142.57;100.00;61215.63;6280550;22;20075;-84
2022/01/09 03:05:18;;;;;;;167.90;37.55;;;;;;;-142.57;100.00;61215.63;6280635;22;20088;-84
2022/01/09 03:07:44;;;;;;;180.90;38.25;;;;;;;-142.57;100.00;61215.63;6279541;22;20011;-84
2022/01/09 03:10:12;;;;;;;100.18;35.42;;;;;;;-142.57;100.00;61215.63;6278330;22;20481;-86
2022/01/09 03:12:39;;;;;;;114.07;39.50;;;;;;;-142.57;100.00;61215.63;6278304;22;20023;-88
2022/01/09 03:15:06;;;;;;;68.95;37.22;;;;;;;-142.57;100.00;61215.63;6280387;22;20008;-84
2022/01/09 03:17:33;;;;;;;73.30;37.35;;;;;;;-142.57;100.00;61215.63;6279408;22;20012;-83
2022/01/09 03:19:58;;;;;;;87.22;37.17;;;;;;;-142.57;100.00;61215.63;6288423;22;20031;-83
2022/01/09 03:22:24;;;;;;;80.85;38.33;;;;;;;-142.57;100.00;61215.63;6225671;22;20455;-83
2022/01/09 03:24:49;;;;;;;87.63;38.92;;;;;;;-142.57;100.00;61215.63;6250302;22;20003;-85
2022/01/09 03:27:16;;;;;;;84.63;40.58;;;;;;;-142.57;100.00;61215.63;6277704;22;20087;-85
2022/01/09 03:29:42;;;;;;;70.07;39.95;;;;;;;-142.57;100.00;61215.63;6277356;22;20038;-86
2022/01/09 03:32:08;;;;;;;73.13;39.90;;;;;;;-142.57;100.00;61215.63;6277333;22;20012;-85
2022/01/09 03:34:35;;;;;;;76.25;41.00;;;;;;;-142.57;100.00;61215.63;6277469;22;20076;-85
2022/01/09 03:37:01;;;;;;;76.65;41.28;;;;;;;-142.57;100.00;61215.63;6277583;22;20455;-84
2022/01/09 03:39:27;;;;;;;75.78;40.33;;;;;;;-142.57;100.00;61215.63;6250549;22;20339;-85
2022/01/09 03:41:54;;;;;;;77.68;41.13;;;;;;;-142.57;100.00;61215.63;6278148;22;20018;-84
2022/01/09 03:44:20;;;;;;;94.72;42.65;;;;;;;-142.57;100.00;61215.63;6277344;22;20030;-88
2022/01/09 03:46:46;;;;;;;73.22;41.97;;;;;;;-142.57;100.00;61215.63;6276937;22;20435;-85
2022/01/09 03:49:11;;;;;;;75.50;41.72;;;;;;;-142.57;100.00;61215.63;6277643;22;20324;-84
2022/01/09 03:51:38;;;;;;;77.72;41.80;;;;;;;-142.57;100.00;61215.63;6277353;22;20008;-86
2022/01/09 03:54:05;;;;;;;73.20;41.40;;;;;;;-142.57;100.00;61215.63;6278460;22;20004;-84
2022/01/09 03:56:30;;;;;;;84.47;43.60;;;;;;;-142.57;100.00;61215.63;6277856;22;20012;-86
2022/01/09 03:58:56;;;;;;;73.25;40.38;;;;;;;-142.57;100.00;61215.63;6277206;22;20065;-84
2022/01/09 04:01:24;;;;;;;77.75;42.25;;;;;;;-142.57;100.00;61215.63;6277161;22;20011;-87
2022/01/09 04:03:51;;;;;;;75.72;42.00;;;;;;;-142.57;100.00;61215.63;6277121;22;20012;-84
2022/01/09 04:06:17;;;;;;;74.22;42.58;;;;;;;-142.57;100.00;61215.63;6277226;22;20011;-83
2022/01/09 04:08:42;;;;;;;71.90;40.83;;;;;;;-142.57;100.00;61215.63;6250235;22;20014;-85
2022/01/09 04:11:09;;;;;;;68.97;40.25;;;;;;;-142.57;100.00;61215.63;6249910;22;20086;-86
2022/01/09 04:13:36;;;;;;;68.22;39.47;;;;;;;-142.57;100.00;61215.63;6277278;22;20018;-82
2022/01/09 04:16:02;;;;;;;68.47;39.55;;;;;;;-142.57;100.00;61215.63;6279542;22;20011;-84
2022/01/09 04:18:28;;;;;;;72.45;40.03;;;;;;;-142.57;100.00;61215.63;6252649;22;20012;-84
2022/01/09 04:20:54;;;;;;;77.10;40.88;;;;;;;-142.57;100.00;61215.63;6279635;22;20061;-85
2022/01/09 04:23:20;;;;;;;69.25;41.08;;;;;;;-142.57;100.00;61215.63;6282649;22;20439;-83
2022/01/09 04:25:46;;;;;;;69.22;38.90;;;;;;;-142.57;100.00;61215.63;6252356;22;20011;-85
2022/01/09 04:28:14;;;;;;;74.13;42.80;;;;;;;-142.57;100.00;61215.63;6279085;22;20465;-86
2022/01/09 04:30:40;;;;;;;67.88;39.70;;;;;;;-142.57;100.00;61215.63;6279441;22;20027;-84
2022/01/09 04:33:05;;;;;;;70.50;41.65;;;;;;;-142.57;100.00;61215.63;6278939;22;20069;-83
2022/01/09 04:35:31;;;;;;;70.22;40.55;;;;;;;-142.57;100.00;61215.63;6252496;22;20126;-84
2022/01/09 04:37:57;;;;;;;68.10;40.30;;;;;;;-142.57;100.00;61215.63;6278772;22;20012;-83
2022/01/09 04:40:23;;;;;;;72.38;40.13;;;;;;;-142.57;100.00;61215.63;6278655;22;20018;-84
2022/01/09 04:42:54;;;;;;;61.22;37.00;;;;;;;-142.57;100.00;61215.63;6250737;22;20033;-83
2022/01/09 04:45:21;;;;;;;61.10;36.45;;;;;;;-142.57;100.00;61215.63;6291541;22;20071;-83
2022/01/09 04:47:49;;;;;;;61.60;36.13;;;;;;;-142.57;100.00;61215.63;6280081;22;20449;-85
2022/01/09 04:50:21;;;;;;;65.53;38.92;;;;;;;-142.57;100.00;61215.63;6278460;22;20046;-83
2022/01/09 04:52:50;;;;;;;77.53;45.22;;;;;;;-142.57;100.00;61215.63;6278749;22;20066;-84
2022/01/09 04:55:15;;;;;;;75.75;44.42;;;;;;;-142.57;100.00;61215.63;6278968;22;20008;-82
2022/01/09 04:57:41;;;;;;;84.35;46.42;;;;;;;-142.57;100.00;61215.63;6251392;22;20007;-83
2022/01/09 05:00:07;;;;;;;79.13;47.13;;;;;;;-142.57;100.00;61215.63;6277870;22;20007;-84
2022/01/09 05:02:34;;;;;;;75.63;44.03;;;;;;;-142.57;100.00;61215.63;6278251;22;20068;-83
2022/01/09 05:04:59;;;;;;;70.82;43.08;;;;;;;-142.57;100.00;61215.63;6250685;22;20012;-84
2022/01/09 05:07:25;;;;;;;72.65;43.50;;;;;;;-142.57;100.00;61215.63;6278806;22;20407;-83
2022/01/09 05:09:50;;;;;;;73.95;43.90;;;;;;;-142.57;100.00;61215.63;6279480;22;20007;-84
2022/01/09 05:12:16;;;;;;;75.95;44.25;;;;;;;-142.57;100.00;61215.63;6280329;22;20339;-83
2022/01/09 05:14:42;;;;;;;71.15;41.88;;;;;;;-142.57;100.00;61215.63;6281323;22;20078;-84
2022/01/09 05:17:07;;;;;;;75.22;43.33;;;;;;;-142.57;100.00;61215.63;6286424;22;20008;-86
2022/01/09 05:19:35;;;;;;;74.50;43.13;;;;;;;-142.57;100.00;61215.63;6262334;22;20010;-86
2022/01/09 05:22:01;;;;;;;70.53;42.47;;;;;;;-142.57;100.00;61215.63;6299693;22;19990;-85
2022/01/09 05:24:27;;;;;;;69.22;41.95;;;;;;;-142.57;100.00;61215.63;6306512;22;19996;-84
2022/01/09 05:26:54;;;;;;;72.57;42.30;;;;;;;-142.57;100.00;61215.63;6293250;22;20020;-84
2022/01/09 05:29:20;;;;;;;71.93;41.83;;;;;;;-142.57;100.00;61215.63;6281753;22;20284;-84
2022/01/09 05:31:48;;;;;;;71.05;40.70;;;;;;;-142.57;100.00;61215.63;6254870;22;20008;-83
2022/01/09 05:34:14;;;;;;;64.75;39.08;;;;;;;-142.57;100.00;61215.63;6283089;22;19999;-84
2022/01/09 05:36:40;;;;;;;71.65;40.67;;;;;;;-142.57;100.00;61215.63;6282274;22;20012;-84
2022/01/09 05:39:27;;;;;;;66.05;39.55;;;;;;;-142.57;100.00;61215.63;6256454;22;20430;-84
2022/01/09 05:41:53;;;;;;;68.57;40.85;;;;;;;-142.57;100.00;61215.63;6283175;22;20012;-84
2022/01/09 05:44:19;;;;;;;69.22;40.40;;;;;;;-142.57;100.00;61215.63;6259443;22;20039;-83
2022/01/09 05:46:45;;;;;;;68.00;40.05;;;;;;;-142.57;100.00;61215.63;6292742;22;20004;-84
2022/01/09 05:49:30;;;;;;;67.00;39.92;;;;;;;-142.57;100.00;61215.63;6279510;22;19996;-82
2022/01/09 05:51:55;;;;;;;68.32;39.83;;;;;;;-142.57;100.00;61215.63;6306020;22;20033;-83
2022/01/09 05:54:21;;;;;;;70.32;40.72;;;;;;;-142.57;100.00;61215.63;6279209;22;20032;-82
2022/01/09 05:56:47;;;;;;;71.10;40.90;;;;;;;-142.57;100.00;61215.63;6304094;22;20058;-83
2022/01/09 05:59:16;;;;;;;70.78;40.47;;;;;;;-142.57;100.00;61215.63;6292094;22;20063;-83
2022/01/09 06:01:43;;;;;;;65.80;39.95;;;;;;;-142.57;100.00;61215.63;6289972;22;20011;-83
2022/01/09 06:04:09;;;;;;;71.68;40.67;;;;;;;-142.57;100.00;61215.63;6288658;22;20004;-82
2022/01/09 06:06:34;;;;;;;73.57;42.58;;;;;;;-142.57;100.00;61215.63;6257751;22;20046;-84
2022/01/09 06:09:00;;;;;;;73.47;43.13;;;;;;;-142.57;100.00;61215.63;6295294;22;20003;-84
2022/01/09 06:11:25;;;;;;;78.25;43.95;;;;;;;-142.57;100.00;61215.63;6298885;22;20014;-82
2022/01/09 06:13:51;;;;;;;79.28;43.85;;;;;;;-142.57;100.00;61215.63;6293258;22;20015;-82
2022/01/09 06:16:16;;;;;;;76.72;45.50;;;;;;;-142.57;100.00;61215.63;6267885;22;20011;-84
2022/01/09 06:18:42;;;;;;;73.55;42.28;;;;;;;-142.57;100.00;61215.63;6297610;22;20008;-83
2022/01/09 06:21:08;;;;;;;69.07;40.58;;;;;;;-142.57;100.00;61215.63;6272791;22;20034;-82
2022/01/09 06:23:33;;;;;;;73.80;42.17;;;;;;;-142.57;100.00;61215.63;6273315;22;20010;-83
2022/01/09 06:25:59;;;;;;;70.18;40.63;;;;;;;-142.57;100.00;61215.63;6299538;22;20308;-82
2022/01/09 06:28:25;;;;;;;77.32;44.00;;;;;;;-142.57;100.00;61215.63;6272566;22;20110;-84
2022/01/09 06:30:50;;;;;;;69.75;41.85;;;;;;;-142.57;100.00;61215.63;6299314;22;20060;-84
2022/01/09 06:33:17;;;;;;;83.60;45.75;;;;;;;-142.57;100.00;61215.63;6296128;22;20112;-83
2022/01/09 06:35:44;;;;;;;78.10;45.15;;;;;;;-142.57;100.00;61215.63;6271011;22;20003;-86
2022/01/09 06:38:09;;;;;;;81.55;45.85;;;;;;;-142.57;100.00;61215.63;6275238;22;20016;-83
2022/01/09 06:40:36;;;;;;;79.50;44.13;;;;;;;-142.57;100.00;61215.63;6300994;22;20018;-82
2022/01/09 06:43:03;;;;;;;85.28;48.53;;;;;;;-142.57;100.00;61215.63;6302563;22;20011;-83
2022/01/09 06:45:29;;;;;;;83.93;47.72;;;;;;;-142.57;100.00;61215.63;6299371;22;20007;-81
2022/01/09 06:47:56;;;;;;;89.55;48.25;;;;;;;-142.57;100.00;61215.63;6296899;22;20014;-83
2022/01/09 06:50:21;;;;;;;85.35;46.88;;;;;;;-142.57;100.00;61215.63;6298335;22;20146;-82
2022/01/09 06:52:50;;;;;;;83.05;47.95;;;;;;;-142.57;100.00;61215.63;6297349;22;20038;-82
2022/01/09 06:55:16;;;;;;;79.15;45.80;;;;;;;-142.57;100.00;61215.63;6301525;22;20012;-85
2022/01/09 06:57:42;;;;;;;82.10;45.03;;;;;;;-142.57;100.00;61215.63;6271472;22;20004;-85
2022/01/09 07:00:10;;;;;;;80.95;46.60;;;;;;;-142.57;100.00;61215.63;6262679;22;20067;-83
2022/01/09 07:02:36;;;;;;;85.78;45.85;;;;;;;-142.57;100.00;61215.63;6279817;22;20008;-80
2022/01/09 07:05:02;;;;;;;81.55;45.50;;;;;;;-142.57;100.00;61215.63;6281381;22;20014;-82
2022/01/09 07:07:28;;;;;;;74.78;43.47;;;;;;;-142.57;100.00;61215.63;6279168;22;20062;-87
2022/01/09 07:09:53;;;;;;;76.75;45.35;;;;;;;-142.57;100.00;61215.63;6281005;22;20078;-84
2022/01/09 07:12:22;;;;;;;76.35;46.15;;;;;;;-142.57;100.00;61215.63;6279715;22;20419;-86
2022/01/09 07:14:47;;;;;;;79.80;45.22;;;;;;;-142.57;100.00;61215.63;6281135;22;20008;-86
2022/01/09 07:17:13;;;;;;;78.88;44.47;;;;;;;-142.57;100.00;61215.63;6259497;22;20019;-86
2022/01/09 07:19:39;;;;;;;78.47;44.22;;;;;;;-142.57;100.00;61215.63;6287188;22;20086;-86
2022/01/09 07:22:05;;;;;;;84.85;47.03;;;;;;;-142.57;100.00;61215.63;6257151;22;20020;-85
2022/01/09 07:24:31;;;;;;;79.25;43.60;;;;;;;-142.57;100.00;61215.63;6286703;22;20004;-84
2022/01/09 07:26:57;;;;;;;74.93;43.20;;;;;;;-142.57;100.00;61215.63;6295317;22;20003;-87
2022/01/09 07:29:23;;;;;;;75.95;44.17;;;;;;;-142.57;100.00;61215.63;6256379;22;20014;-87
2022/01/09 07:31:51;;;;;;;75.80;45.17;;;;;;;-142.57;100.00;61215.63;6282594;22;20008;-84
2022/01/09 07:34:20;;;;;;;80.45;45.35;;;;;;;-142.57;100.00;61215.63;6259896;22;20008;-84
2022/01/09 07:37:05;;;;;;;80.78;45.75;;;;;;;-142.57;100.00;61215.63;6285173;22;20042;-87
2022/01/09 07:39:30;;;;;;;87.97;47.85;;;;;;;-142.57;100.00;61215.63;6282843;22;20008;-89
2022/01/09 07:41:57;;;;;;;92.07;48.13;;;;;;;-142.57;100.00;61215.63;6289001;22;20057;-86
2022/01/09 07:44:24;;;;;;;89.18;48.55;;;;;;;-142.57;100.00;61215.63;6265750;22;20042;-91
2022/01/09 07:46:50;;;;;;;92.70;48.75;;;;;;;-142.57;100.00;61215.63;6281007;22;20012;-82
2022/01/09 07:49:16;;;;;;;88.60;48.88;;;;;;;-142.57;100.00;61215.63;6281911;22;20435;-90
2022/01/09 07:51:42;;;;;;;91.30;48.15;;;;;;;-142.57;100.00;61215.63;6280085;22;20006;-90
2022/01/09 07:54:07;;;;;;;93.18;49.35;;;;;;;-142.57;100.00;61215.63;6254263;22;20084;-86
2022/01/09 07:56:34;;;;;;;95.63;50.30;;;;;;;-142.57;100.00;61215.63;6257212;22;20326;-86
2022/01/09 07:59:00;;;;;;;94.13;48.83;;;;;;;-142.57;100.00;61215.63;6291428;22;20008;-88
2022/01/09 08:01:45;;;;;;;91.68;48.70;;;;;;;-142.57;100.00;61215.63;6266594;22;20007;-92
2022/01/09 08:04:23;;;;;;;97.20;48.72;;;;;;;-142.57;100.00;61215.63;6288242;22;20004;-90
2022/01/09 08:06:49;;;;;;;91.20;49.38;;;;;;;-142.57;100.00;61215.63;6261840;22;20035;-89
2022/01/09 08:09:14;;;;;;;97.28;50.00;;;;;;;-142.57;100.00;61215.63;6286066;22;20493;-89
2022/01/09 08:11:40;;;;;;;100.78;49.83;;;;;;;-142.57;100.00;61215.63;6303911;22;20059;-87
2022/01/09 08:14:08;;;;;;;102.18;49.88;;;;;;;-142.57;100.00;61215.63;6277896;22;20004;-87
2022/01/09 08:16:34;;;;;;;94.63;47.78;;;;;;;-142.57;100.00;61215.63;6278345;22;20012;-85
2022/01/09 08:18:59;;;;;;;95.70;47.95;;;;;;;-142.57;100.00;61215.63;6264548;22;20003;-88
2022/01/09 08:21:25;;;;;;;94.00;48.65;;;;;;;-142.57;100.00;61215.63;6253277;22;20018;-90
2022/01/09 08:23:51;;;;;;;105.30;51.13;;;;;;;-142.57;100.00;61215.63;6281972;22;20007;-89
2022/01/09 08:26:17;;;;;;;100.60;51.03;;;;;;;-142.57;100.00;61215.63;6285215;22;20014;-88
2022/01/09 08:28:48;;;;;;;100.80;51.40;;;;;;;-142.57;100.00;61215.63;6287054;22;20083;-86
2022/01/09 08:31:15;;;;;;;107.68;52.75;;;;;;;-142.57;100.00;61215.63;6254926;22;20047;-89
2022/01/09 08:33:41;;;;;;;107.80;51.25;;;;;;;-142.57;100.00;61215.63;6252900;22;20035;-89
2022/01/09 08:36:08;;;;;;;108.43;52.72;;;;;;;-142.57;100.00;61215.63;6282730;22;20007;-89
2022/01/09 08:38:33;;;;;;;113.95;53.50;;;;;;;-142.57;100.00;61215.63;6207077;22;20026;-88
2022/01/09 08:41:00;;;;;;;109.38;54.38;;;;;;;-142.57;100.00;61215.63;6255179;22;20015;-89
2022/01/09 08:43:25;;;;;;;117.38;53.28;;;;;;;-142.57;100.00;61215.63;6230514;22;20015;-87
2022/01/09 08:45:51;;;;;;;116.95;53.63;;;;;;;-142.57;100.00;61215.63;6279890;22;20092;-88
2022/01/09 08:48:17;;;;;;;112.20;54.85;;;;;;;-142.57;100.00;61215.63;6284555;22;20016;-87
2022/01/09 08:50:43;;;;;;;123.60;56.25;;;;;;;-142.57;100.00;61215.63;6261037;22;20025;-87
2022/01/09 08:53:09;;;;;;;117.32;57.08;;;;;;;-142.57;100.00;61215.63;6287664;22;20100;-90
2022/01/09 08:55:35;;;;;;;115.80;55.97;;;;;;;-142.57;100.00;61215.63;6286124;22;20381;-87
2022/01/09 08:58:01;;;;;;;121.20;57.42;;;;;;;-142.57;100.00;61215.63;6292495;22;20008;-87
2022/01/09 09:00:27;;;;;;;114.90;55.88;;;;;;;-142.57;100.00;61215.63;6296130;22;20007;-90
2022/01/09 09:02:53;;;;;;;125.00;58.55;;;;;;;-142.57;100.00;61215.63;6230733;22;20424;-88
2022/01/09 09:05:22;;;;;;;124.65;58.45;;;;;;;-142.57;100.00;61215.63;6287831;22;20035;-91
2022/01/09 09:07:48;;;;;;;125.75;60.72;;;;;;;-142.57;100.00;61215.63;6287351;22;20156;-89
2022/01/09 09:10:15;;;;;;;129.18;59.97;;;;;;;-142.57;100.00;61215.63;6268759;22;20000;-91
2022/01/09 09:12:41;;;;;;;127.60;59.97;;;;;;;-142.57;100.00;61215.63;6270722;22;20014;-89
2022/01/09 09:15:11;;;;;;;124.75;57.15;;;;;;;-142.57;100.00;61215.63;6298010;22;19991;-91
2022/01/09 09:17:55;;;;;;;113.03;53.92;;;;;;;-142.57;100.00;61215.63;6269324;22;20034;-89
2022/01/09 09:20:29;;;;;;;124.20;54.30;;;;;;;-142.57;100.00;61215.63;6270917;22;20011;-89
2022/01/09 09:23:23;;;;;;;117.68;56.13;;;;;;;-142.57;100.00;61215.63;6300243;22;20035;-91
2022/01/09 09:25:59;;;;;;;118.15;55.58;;;;;;;-142.57;100.00;61215.63;6244294;22;20046;-89
2022/01/09 09:28:27;;;;;;;112.40;53.45;;;;;;;-142.57;100.00;61215.63;6259045;22;20075;-89
2022/01/09 09:30:54;;;;;;;116.22;54.17;;;;;;;-142.57;100.00;61215.63;6279014;22;20007;-86
2022/01/09 09:33:20;;;;;;;111.22;53.75;;;;;;;-142.57;100.00;61215.63;6255939;22;20008;-88
2022/01/09 09:35:45;;;;;;;111.78;54.25;;;;;;;-142.57;100.00;61215.63;6258023;22;20466;-87
2022/01/09 09:38:14;;;;;;;115.05;53.53;;;;;;;-142.57;100.00;61215.63;6283841;22;20031;-88
2022/01/09 09:41:03;;;;;;;108.40;54.10;;;;;;;-142.57;100.00;61215.63;6287627;22;20011;-89
2022/01/09 09:43:29;;;;;;;120.82;54.78;;;;;;;-142.57;100.00;61215.63;6235703;22;20022;-91
2022/01/09 09:45:54;;;;;;;119.75;55.15;;;;;;;-142.57;100.00;61215.63;6207239;22;20023;-86
2022/01/09 09:48:20;;;;;;;110.90;55.63;;;;;;;-142.57;100.00;61215.63;6287586;22;20004;-86
2022/01/09 09:50:46;;;;;;;102.30;52.00;;;;;;;-142.57;100.00;61215.63;6286878;22;20038;-88
2022/01/09 09:53:15;;;;;;;114.20;54.20;;;;;;;-142.57;100.00;61215.63;6275267;22;20081;-89
2022/01/09 09:55:45;;;;;;;108.28;54.58;;;;;;;-142.57;100.00;61215.63;6283444;22;20007;-89
2022/01/09 09:58:14;;;;;;;112.88;55.58;;;;;;;-142.57;100.00;61215.63;6282408;22;20015;-87
2022/01/09 10:00:40;;;;;;;111.68;53.15;;;;;;;-142.57;100.00;61215.63;6268155;22;20073;-89
2022/01/09 10:03:07;;;;;;;110.40;54.22;;;;;;;-142.57;100.00;61215.63;6262599;22;20438;-87
2022/01/09 10:05:35;;;;;;;118.70;56.58;;;;;;;-142.57;100.00;61215.63;6288068;22;20016;-90
2022/01/09 10:08:11;;;;;;;112.18;54.70;;;;;;;-142.57;100.00;61215.63;6283131;22;20004;-89
2022/01/09 10:10:38;;;;;;;102.47;52.08;;;;;;;-142.57;100.00;61215.63;6232387;22;20510;-87
2022/01/09 10:13:13;;;;;;;103.07;52.50;;;;;;;-142.57;100.00;61215.63;6253712;22;20750;-85
2022/01/09 10:15:48;;;;;;;96.25;49.17;;;;;;;-142.57;100.00;61215.63;6282512;22;20008;-89
2022/01/09 10:18:14;;;;;;;103.13;52.00;;;;;;;-142.57;100.00;61215.63;6284681;22;20015;-90
2022/01/09 10:20:40;;;;;;;93.32;48.60;;;;;;;-142.57;100.00;61215.63;6288567;22;20012;-88
2022/01/09 10:23:06;;;;;;;95.85;49.95;;;;;;;-142.57;100.00;61215.63;6288239;22;19999;-86
2022/01/09 10:25:36;;;;;;;86.85;46.45;;;;;;;-142.57;100.00;61215.63;6254495;22;20018;-87
2022/01/09 10:28:17;;;;;;;90.88;47.80;;;;;;;-142.57;100.00;61215.63;6287347;22;20015;-89
2022/01/09 10:30:45;;;;;;;89.47;46.70;;;;;;;-142.57;100.00;61215.63;6284526;22;20569;-88
2022/01/09 10:33:13;;;;;;;82.45;46.55;;;;;;;-142.57;100.00;61215.63;6278796;22;20018;-87
2022/01/09 10:35:47;;;;;;;95.13;48.80;;;;;;;-142.57;100.00;61215.63;6279482;22;20007;-88
2022/01/09 10:38:27;;;;;;;89.70;46.85;;;;;;;-142.57;100.00;61215.63;6252590;22;20012;-87
2022/01/09 10:41:00;;;;;;;88.28;45.38;;;;;;;-142.57;100.00;61215.63;6259301;22;20004;-88
2022/01/09 10:43:41;;;;;;;76.55;44.35;;;;;;;-142.57;100.00;61215.63;6284172;22;20012;-86
2022/01/09 10:46:14;;;;;;;83.07;45.35;;;;;;;-142.57;100.00;61215.63;6256423;22;20042;-86
2022/01/09 10:48:45;;;;;;;82.65;45.63;;;;;;;-142.57;100.00;61215.63;6286532;22;20061;-90
2022/01/09 10:51:39;;;;;;;77.65;43.55;;;;;;;-142.57;100.00;61215.63;6296506;22;20081;-90
2022/01/09 10:54:29;;;;;;;85.07;46.63;;;;;;;-142.57;100.00;61215.63;6291548;22;20031;-87
2022/01/09 10:57:16;;;;;;;80.43;45.13;;;;;;;-142.57;100.00;61215.63;6285131;22;20020;-83